Time,TemperatureF,DewpointF,PressureIn,WindDirection,WindDirectionDegrees,WindSpeedMPH,WindSpeedGustMPH,Humidity,HourlyPrecipIn,Conditions,Clouds,dailyrainin,SolarRadiationWatts/m^2,SoftwareType,DateUTC
2013-03-04 00:13:00,51.4,41.0,30.07,NNE,18,2.0,-999.0,68,-99.99,,,0.00,0,weatherlink.com 1.10,2013-03-04 05:13:00,
2013-03-04 00:28:00,50.8,40.0,30.08,WNW,284,12.0,-999.0,67,-99.99,,,0.00,0,weatherlink.com 1.10,2013-03-04 05:28:00,
2013-03-04 00:43:00,50.5,40.0,30.08,NNW,331,7.0,-999.0,67,-99.99,,,0.00,0,weatherlink.com 1.10,2013-03-04 05:43:00,
2013-03-04 00:58:00,50.4,40.0,30.07,WNW,285,5.0,-999.0,68,-99.99,,,0.00,0,weatherlink.com 1.10,2013-03-04 05:58:00,
2013-03-04 01:13:00,50.1,40.0,30.07,West,274,2.0,-999.0,68,-99.99,,,0.00,0,weatherlink.com 1.10,2013-03-04 06:13:00,
2013-03-04 01:28:00,49.8,40.0,30.07,WNW,286,4.0,-999.0,69,-99.99,,,0.00,0,weatherlink.com 1.10,2013-03-04 06:28:00,
2013-03-04 01:43:00,49.4,40.0,30.07,West,275,3.0,-999.0,70,-99.99,,,0.00,0,weatherlink.com 1.10,2013-03-04 06:43:00,
2013-03-04 01:58:00,48.9,39.0,30.07,WNW,297,9.0,-999.0,70,-99.99,,,0.00,0,weatherlink.com 1.10,2013-03-04 06:58:00,
2013-03-04 02:13:00,48.6,40.0,30.07,NNW,333,7.0,-999.0,71,-99.99,,,0.00,0,weatherlink.com 1.10,2013-03-04 07:13:00,
2013-03-04 02:28:00,48.2,39.0,30.07,NW,311,4.0,-999.0,71,-99.99,,,0.00,0,weatherlink.com 1.10,2013-03-04 07:28:00,
2013-03-04 02:43:00,47.9,39.0,30.07,West,267,2.0,-999.0,72,-99.99,,,0.00,0,weatherlink.com 1.10,2013-03-04 07:43:00,
2013-03-04 02:58:00,47.4,39.0,30.06,WNW,294,6.0,-999.0,72,-99.99,,,0.00,0,weatherlink.com 1.10,2013-03-04 07:58:00,
2013-03-04 03:13:00,47.3,39.0,30.05,North,349,6.0,-999.0,72,-99.99,,,0.00,0,weatherlink.com 1.10,2013-03-04 08:13:00,
2013-03-04 03:28:00,47.1,38.0,30.05,West,270,4.0,-999.0,72,-99.99,,,0.00,0,weatherlink.com 1.10,2013-03-04 08:28:00,
2013-03-04 03:43:00,46.8,38.0,30.05,West,277,4.0,-999.0,72,-99.99,,,0.00,0,weatherlink.com 1.10,2013-03-04 08:43:00,
2013-03-04 03:58:00,46.5,38.0,30.06,WNW,298,4.0,-999.0,72,-99.99,,,0.00,0,weatherlink.com 1.10,2013-03-04 08:58:00,
2013-03-04 04:13:00,46.2,37.0,30.06,NNW,343,6.0,-999.0,71,-99.99,,,0.00,0,weatherlink.com 1.10,2013-03-04 09:13:00,
2013-03-04 04:28:00,46.0,37.0,30.07,NNE,22,4.0,-999.0,71,-99.99,,,0.00,0,weatherlink.com 1.10,2013-03-04 09:28:00,
2013-03-04 04:43:00,45.8,37.0,30.07,NW,304,0.0,-999.0,71,-99.99,,,0.00,0,weatherlink.com 1.10,2013-03-04 09:43:00,
2013-03-04 04:58:00,45.5,37.0,30.08,WNW,302,3.0,-999.0,71,-99.99,,,0.00,0,weatherlink.com 1.10,2013-03-04 09:58:00,
2013-03-04 05:13:00,45.4,36.0,30.09,WNW,290,3.0,-999.0,70,-99.99,,,0.00,0,weatherlink.com 1.10,2013-03-04 10:13:00,
2013-03-04 05:28:00,45.4,36.0,30.09,WNW,294,6.0,-999.0,69,-99.99,,,0.00,0,weatherlink.com 1.10,2013-03-04 10:28:00,
2013-03-04 05:43:00,45.5,35.0,30.10,WNW,290,1.0,-999.0,68,-99.99,,,0.00,0,weatherlink.com 1.10,2013-03-04 10:43:00,
2013-03-04 05:58:00,45.5,35.0,30.10,WNW,282,4.0,-999.0,68,-99.99,,,0.00,0,weatherlink.com 1.10,2013-03-04 10:58:00,
2013-03-04 06:13:00,45.4,35.0,30.10,WNW,302,1.0,-999.0,68,-99.99,,,0.00,0,weatherlink.com 1.10,2013-03-04 11:13:00,
2013-03-04 06:28:00,45.1,35.0,30.11,NNW,330,0.0,-999.0,69,-99.99,,,0.00,0,weatherlink.com 1.10,2013-03-04 11:28:00,
2013-03-04 06:43:00,45.1,35.0,30.11,NW,320,2.0,-999.0,69,-99.99,,,0.00,7,weatherlink.com 1.10,2013-03-04 11:43:00,
2013-03-04 06:58:00,44.9,35.0,30.12,NNW,333,3.0,-999.0,69,-99.99,,,0.00,16,weatherlink.com 1.10,2013-03-04 11:58:00,
2013-03-04 07:13:00,45.2,36.0,30.13,NNW,327,1.0,-999.0,70,-99.99,,,0.00,23,weatherlink.com 1.10,2013-03-04 12:13:00,
2013-03-04 07:28:00,45.5,36.0,30.13,North,350,3.0,-999.0,69,-99.99,,,0.00,28,weatherlink.com 1.10,2013-03-04 12:28:00,
2013-03-04 07:43:00,46.2,37.0,30.14,NW,309,3.0,-999.0,69,-99.99,,,0.00,32,weatherlink.com 1.10,2013-03-04 12:43:00,
2013-03-04 07:58:00,47.4,37.0,30.14,NNE,21,7.0,-999.0,67,-99.99,,,0.00,35,weatherlink.com 1.10,2013-03-04 12:58:00,
2013-03-04 08:13:00,48.2,36.0,30.14,NNW,327,3.0,-999.0,64,-99.99,,,0.00,37,weatherlink.com 1.10,2013-03-04 13:13:00,
2013-03-04 08:28:00,49.2,37.0,30.14,NNW,331,7.0,-999.0,62,-99.99,,,0.00,130,weatherlink.com 1.10,2013-03-04 13:28:00,
2013-03-04 08:43:00,50.4,36.0,30.14,North,9,6.0,-999.0,59,-99.99,,,0.00,378,weatherlink.com 1.10,2013-03-04 13:43:00,
2013-03-04 08:58:00,51.6,37.0,30.14,NW,313,7.0,-999.0,57,-99.99,,,0.00,476,weatherlink.com 1.10,2013-03-04 13:58:00,
2013-03-04 09:13:00,52.5,37.0,30.14,NW,316,4.0,-999.0,56,-99.99,,,0.00,527,weatherlink.com 1.10,2013-03-04 14:13:00,
2013-03-04 09:28:00,53.8,37.0,30.15,NW,318,2.0,-999.0,53,-99.99,,,0.00,580,weatherlink.com 1.10,2013-03-04 14:28:00,
2013-03-04 09:43:00,55.0,37.0,30.14,NNW,344,4.0,-999.0,51,-99.99,,,0.00,628,weatherlink.com 1.10,2013-03-04 14:43:00,
2013-03-04 09:58:00,55.3,36.0,30.14,North,9,6.0,-999.0,48,-99.99,,,0.00,673,weatherlink.com 1.10,2013-03-04 14:58:00,
2013-03-04 10:13:00,56.5,37.0,30.14,West,279,6.0,-999.0,48,-99.99,,,0.00,714,weatherlink.com 1.10,2013-03-04 15:13:00,
2013-03-04 10:28:00,57.2,36.0,30.14,NW,317,3.0,-999.0,45,-99.99,,,0.00,754,weatherlink.com 1.10,2013-03-04 15:28:00,
2013-03-04 10:43:00,58.4,36.0,30.14,WNW,301,7.0,-999.0,43,-99.99,,,0.00,789,weatherlink.com 1.10,2013-03-04 15:43:00,
2013-03-04 10:58:00,58.7,35.0,30.14,WNW,285,4.0,-999.0,42,-99.99,,,0.00,817,weatherlink.com 1.10,2013-03-04 15:58:00,
2013-03-04 11:13:00,59.5,36.0,30.14,WNW,300,4.0,-999.0,41,-99.99,,,0.00,844,weatherlink.com 1.10,2013-03-04 16:13:00,
2013-03-04 11:28:00,60.5,35.0,30.14,North,350,2.0,-999.0,38,-99.99,,,0.00,868,weatherlink.com 1.10,2013-03-04 16:28:00,
2013-03-04 11:43:00,60.2,34.0,30.14,NW,317,0.0,-999.0,38,-99.99,,,0.00,886,weatherlink.com 1.10,2013-03-04 16:43:00,
2013-03-04 11:58:00,61.0,35.0,30.13,NW,309,6.0,-999.0,38,-99.99,,,0.00,902,weatherlink.com 1.10,2013-03-04 16:58:00,
2013-03-04 12:13:00,60.4,33.0,30.13,WNW,290,1.0,-999.0,36,-99.99,,,0.00,907,weatherlink.com 1.10,2013-03-04 17:13:00,
2013-03-04 12:28:00,62.1,33.0,30.11,NE,53,0.0,-999.0,34,-99.99,,,0.00,912,weatherlink.com 1.10,2013-03-04 17:28:00,
2013-03-04 12:43:00,63.1,33.0,30.11,West,263,1.0,-999.0,33,-99.99,,,0.00,919,weatherlink.com 1.10,2013-03-04 17:43:00,
2013-03-04 12:58:00,64.5,31.0,30.09,NNE,14,2.0,-999.0,29,-99.99,,,0.00,916,weatherlink.com 1.10,2013-03-04 17:58:00,
2013-03-04 13:28:00,65.3,38.0,30.08,NE,44,3.0,-999.0,36,-99.99,,,0.00,891,weatherlink.com 1.10,2013-03-04 18:28:00,
2013-03-04 13:43:00,65.0,39.0,30.08,ENE,70,0.0,-999.0,38,-99.99,,,0.00,872,weatherlink.com 1.10,2013-03-04 18:43:00,
2013-03-04 13:58:00,64.3,38.0,30.08,NE,56,3.0,-999.0,38,-99.99,,,0.00,847,weatherlink.com 1.10,2013-03-04 18:58:00,
2013-03-04 14:13:00,65.5,40.0,30.08,ENE,76,3.0,-999.0,39,-99.99,,,0.00,824,weatherlink.com 1.10,2013-03-04 19:13:00,
2013-03-04 14:28:00,66.1,40.0,30.07,NE,46,5.0,-999.0,39,-99.99,,,0.00,795,weatherlink.com 1.10,2013-03-04 19:28:00,
2013-03-04 14:43:00,64.5,39.0,30.07,NE,55,7.0,-999.0,39,-99.99,,,0.00,756,weatherlink.com 1.10,2013-03-04 19:43:00,
2013-03-04 14:58:00,65.2,40.0,30.07,ENE,63,2.0,-999.0,40,-99.99,,,0.00,715,weatherlink.com 1.10,2013-03-04 19:58:00,
2013-03-04 15:13:00,65.5,40.0,30.07,ENE,71,4.0,-999.0,39,-99.99,,,0.00,677,weatherlink.com 1.10,2013-03-04 20:13:00,
2013-03-04 15:28:00,64.8,40.0,30.07,NE,41,5.0,-999.0,41,-99.99,,,0.00,629,weatherlink.com 1.10,2013-03-04 20:28:00,
2013-03-04 15:43:00,64.2,40.0,30.07,NE,34,6.0,-999.0,41,-99.99,,,0.00,584,weatherlink.com 1.10,2013-03-04 20:43:00,
2013-03-04 15:58:00,65.3,40.0,30.07,NE,51,2.0,-999.0,40,-99.99,,,0.00,527,weatherlink.com 1.10,2013-03-04 20:58:00,
2013-03-04 16:13:00,64.5,41.0,30.06,ENE,61,2.0,-999.0,42,-99.99,,,0.00,475,weatherlink.com 1.10,2013-03-04 21:13:00,
2013-03-04 16:28:00,64.3,41.0,30.07,ENE,67,3.0,-999.0,43,-99.99,,,0.00,417,weatherlink.com 1.10,2013-03-04 21:28:00,
2013-03-04 16:43:00,64.8,41.0,30.07,NE,44,5.0,-999.0,42,-99.99,,,0.00,360,weatherlink.com 1.10,2013-03-04 21:43:00,
2013-03-04 16:58:00,64.7,41.0,30.07,NE,34,5.0,-999.0,42,-99.99,,,0.00,302,weatherlink.com 1.10,2013-03-04 21:58:00,
2013-03-04 17:13:00,63.9,42.0,30.07,ENE,70,6.0,-999.0,45,-99.99,,,0.00,243,weatherlink.com 1.10,2013-03-04 22:13:00,
2013-03-04 17:28:00,64.2,43.0,30.07,NE,54,2.0,-999.0,47,-99.99,,,0.00,185,weatherlink.com 1.10,2013-03-04 22:28:00,
2013-03-04 17:44:00,63.7,45.0,30.07,NE,46,5.0,-999.0,50,-99.99,,,0.00,130,weatherlink.com 1.10,2013-03-04 22:44:00,
2013-03-04 17:58:00,63.5,44.0,30.07,NE,41,3.0,-999.0,50,-99.99,,,0.00,67,weatherlink.com 1.10,2013-03-04 22:58:00,
2013-03-04 18:13:00,63.4,45.0,30.08,NNE,31,2.0,-999.0,51,-99.99,,,0.00,12,weatherlink.com 1.10,2013-03-04 23:13:00,
2013-03-04 18:28:00,62.9,45.0,30.08,ENE,66,1.0,-999.0,53,-99.99,,,0.00,0,weatherlink.com 1.10,2013-03-04 23:28:00,
2013-03-04 18:43:00,62.4,45.0,30.08,NNE,22,2.0,-999.0,54,-99.99,,,0.00,0,weatherlink.com 1.10,2013-03-04 23:43:00,
2013-03-04 18:58:00,62.0,44.0,30.08,NNE,28,3.0,-999.0,53,-99.99,,,0.00,0,weatherlink.com 1.10,2013-03-04 23:58:00,
2013-03-04 19:13:00,61.8,44.0,30.08,NNE,32,2.0,-999.0,53,-99.99,,,0.00,0,weatherlink.com 1.10,2013-03-05 00:13:00,
2013-03-04 19:28:00,61.5,44.0,30.09,NNE,32,0.0,-999.0,53,-99.99,,,0.00,0,weatherlink.com 1.10,2013-03-05 00:28:00,
2013-03-04 19:43:00,61.2,44.0,30.09,NNE,32,0.0,-999.0,53,-99.99,,,0.00,0,weatherlink.com 1.10,2013-03-05 00:43:00,
2013-03-04 19:58:00,60.9,43.0,30.10,NNE,32,0.0,-999.0,53,-99.99,,,0.00,0,weatherlink.com 1.10,2013-03-05 00:58:00,
2013-03-04 20:13:00,60.5,43.0,30.10,NNE,32,0.0,-999.0,53,-99.99,,,0.00,0,weatherlink.com 1.10,2013-03-05 01:13:00,
2013-03-04 20:28:00,60.1,43.0,30.10,NNE,32,0.0,-999.0,54,-99.99,,,0.00,0,weatherlink.com 1.10,2013-03-05 01:28:00,
2013-03-04 20:44:00,59.5,43.0,30.11,NNE,32,0.0,-999.0,55,-99.99,,,0.00,0,weatherlink.com 1.10,2013-03-05 01:44:00,
2013-03-04 20:58:00,58.9,43.0,30.11,NNE,32,0.0,-999.0,57,-99.99,,,0.00,0,weatherlink.com 1.10,2013-03-05 01:58:00,
2013-03-04 21:13:00,58.1,44.0,30.11,NNE,32,0.0,-999.0,59,-99.99,,,0.00,0,weatherlink.com 1.10,2013-03-05 02:13:00,
2013-03-04 21:28:00,57.6,44.0,30.12,NNE,32,0.0,-999.0,60,-99.99,,,0.00,0,weatherlink.com 1.10,2013-03-05 02:28:00,
2013-03-04 21:43:00,57.3,44.0,30.12,NNE,32,0.0,-999.0,61,-99.99,,,0.00,0,weatherlink.com 1.10,2013-03-05 02:43:00,
2013-03-04 21:58:00,57.0,44.0,30.13,NNE,32,0.0,-999.0,62,-99.99,,,0.00,0,weatherlink.com 1.10,2013-03-05 02:58:00,
2013-03-04 22:14:00,56.6,44.0,30.12,NNE,32,0.0,-999.0,62,-99.99,,,0.00,0,weatherlink.com 1.10,2013-03-05 03:14:00,
2013-03-04 22:29:00,56.2,44.0,30.12,NNE,32,0.0,-999.0,63,-99.99,,,0.00,0,weatherlink.com 1.10,2013-03-05 03:29:00,
2013-03-04 22:44:00,55.9,44.0,30.11,NNE,32,0.0,-999.0,64,-99.99,,,0.00,0,weatherlink.com 1.10,2013-03-05 03:44:00,
2013-03-04 22:59:00,55.4,43.0,30.11,NNE,32,0.0,-999.0,64,-99.99,,,0.00,0,weatherlink.com 1.10,2013-03-05 03:59:00,
2013-03-04 23:14:00,55.1,43.0,30.11,NNE,32,0.0,-999.0,64,-99.99,,,0.00,0,weatherlink.com 1.10,2013-03-05 04:14:00,
2013-03-04 23:29:00,55.0,43.0,30.11,NNE,32,0.0,-999.0,64,-99.99,,,0.00,0,weatherlink.com 1.10,2013-03-05 04:29:00,
2013-03-04 23:44:00,54.7,43.0,30.11,NNE,32,0.0,-999.0,65,-99.99,,,0.00,0,weatherlink.com 1.10,2013-03-05 04:44:00,
2013-03-04 23:59:00,54.2,43.0,30.11,NNE,32,0.0,-999.0,65,-99.99,,,0.00,0,weatherlink.com 1.10,2013-03-05 04:59:00,